Meteo Giornale » Osservazioni meteo Stati Uniti (USA) » Mount Shasta
ore: 22:56 - Osservazioni Meteo Mount Shasta
Lat. 41° 18' N Lon. 122° 18' W Alt. 1077 metri s.l.m.
12 °C
Coperto
Temp. 24 Ore
8 °C
19 °C
Nord
0 Km/h
Dew point 8 °C
Umidità 76 %
Visibilità 10 Km
Il sole sorge alle ore 06:35
Il sole tramonta alle ore 19:42
| Data e Ora | Cielo e Fenomeni | T °C | DP °C | Um. % | Pres. hPa | Vis. km | Vento km/h | |
|---|---|---|---|---|---|---|---|---|
| Oggi h: 22:56 | Coperto | 12 | 8 | 76 | 1015 | 10 | N 0 | |
| Oggi h: 21:56 | Molto Nuvoloso | 12 | 7 | 71 | 1015 | 10 | N 5.5 | |
| Oggi h: 20:56 | Sereno | 12 | 7 | 71 | 1015 | 10 | N 5.5 | |
| Oggi h: 19:56 | Sereno | 13 | 7 | 66 | 1015 | 10 | N 5.5 | |
| Oggi h: 18:56 | Nuvoloso | 14 | 6 | 58 | 1015 | 10 | N 5.5 | |
| Oggi h: 17:56 | Molto Nuvoloso | 14 | 5 | 54 | 1015 | 10 | SE 7.4 | |
| Oggi h: 16:56 | Poco Nuvoloso | 16 | 5 | 47 | 1015 | 10 | E/SE 11.1 | |
| Oggi h: 15:56 | Sereno | 16 | 5 | 47 | 1015 | 10 | N 0 | |
| Oggi h: 14:56 | Sereno | 17 | 7 | 51 | 1015 | 10 | N 0 | |
| Oggi h: 13:56 | Sereno | 18 | 6 | 45 | 1015 | 10 | N 0 | |
| Oggi h: 12:56 | Sereno | 19 | 7 | 45 | 1015 | 10 | N 0 | |
| Oggi h: 11:56 | Sereno | 18 | 4 | 39 | 1015 | 10 | N 0 | |
| Oggi h: 10:56 | Sereno | 18 | 1 | 31 | 1015 | 10 | N 5.5 | |
| Oggi h: 09:56 | Sereno | 16 | 5 | 47 | 1014 | 10 | N 5.5 | |
| Oggi h: 08:56 | Sereno | 13 | 7 | 66 | 1014 | 10 | N 0 | |
| Oggi h: 07:56 | Sereno | 11 | 7 | 76 | 1014 | 10 | N 0 | |
| Oggi h: 06:56 | Sereno | 8 | 6 | 87 | 1013 | 10 | N 0 | |
| Oggi h: 05:56 | Sereno | 9 | 5 | 75 | 1013 | 10 | N 0 | |
| Oggi h: 04:56 | Sereno | 12 | 5 | 62 | 1014 | 10 | N 0 | |
| Oggi h: 03:56 | Sereno | 13 | 6 | 62 | 1013 | 10 | N 0 | |
| Oggi h: 02:56 | Sereno | 13 | 6 | 62 | 1013 | 10 | N 0 | |
| Oggi h: 01:56 | Sereno | 14 | 6 | 58 | 1013 | 10 | N 0 | |
| Oggi h: 00:56 | Sereno | 14 | 3 | 47 | 1014 | 13 | N 0 | |
| Ieri h: 23:56 | Sereno | 17 | 2 | 36 | 1014 | 14 | N 0 | |



